Long Point, Illinois
Current Conditions -  °F | °C
As of 11:35 AM on Saturday 20 Dec 2014 (Local Time) from KPNT Reporting Station
Overcast Overcast  
Wind Chill: -3°   Ceiling: 6500
Heat Index:   Visibility: 10mi
Dew Point: -2°   Wind: 8mph
Humidity: 81%   Direction: 180°S
Pressure: 30.28"   Gusts: NA
Location:  41°N, 88.89°W
Report Text: KPNT 201735Z AUTO 18007KT 10SM OVC065 01/M02 A3028 RMK AO2 T00091021
Loading
Personal Weather Stations






























Interactive Weather Map New forecast layout! Learn more

10-Day Weather Forecast

Advertisements
Track Severe Weather on mobile